createdAt,value
2022-12-15T00:02:17.498Z,6.05
2022-12-15T00:05:02.915Z,6.00
2022-12-15T00:07:48.027Z,6.53
2022-12-15T00:10:33.827Z,6.50
2022-12-15T00:13:19.168Z,6.07
2022-12-15T00:16:05.756Z,6.10
2022-12-15T00:18:50.935Z,6.13
2022-12-15T00:21:36.274Z,6.30
2022-12-15T00:24:21.400Z,6.28
2022-12-15T00:27:06.731Z,6.03
2022-12-15T00:29:52.106Z,6.45
2022-12-15T00:32:37.404Z,5.95
2022-12-15T00:35:22.753Z,6.30
2022-12-15T00:38:08.046Z,5.80
2022-12-15T00:40:34.583Z,5.85
2022-12-15T00:43:01.463Z,6.50
2022-12-15T00:45:48.000Z,6.43
2022-12-15T00:48:14.642Z,6.28
2022-12-15T00:50:53.042Z,6.30
2022-12-15T00:53:42.663Z,6.40
2022-12-15T00:56:28.567Z,6.88
2022-12-15T00:59:14.389Z,6.90
2022-12-15T01:01:59.920Z,7.57
2022-12-15T01:04:46.087Z,6.57
2022-12-15T01:07:31.428Z,6.78
2022-12-15T01:10:16.743Z,5.93
2022-12-15T01:13:02.121Z,7.43
2022-12-15T01:15:47.430Z,6.90
2022-12-15T01:18:32.466Z,6.85
2022-12-15T01:21:05.503Z,6.78
2022-12-15T01:23:33.285Z,6.90
2022-12-15T01:26:00.858Z,7.07
2022-12-15T01:28:27.695Z,6.53
2022-12-15T01:30:54.552Z,7.03
2022-12-15T01:33:22.198Z,6.68
2022-12-15T01:36:01.833Z,7.03
2022-12-15T01:38:29.063Z,6.70
2022-12-15T01:41:02.464Z,7.00
2022-12-15T01:43:35.037Z,7.00
2022-12-15T01:46:02.020Z,7.22
2022-12-15T01:48:35.521Z,6.63
2022-12-15T01:51:04.792Z,6.65
2022-12-15T01:53:40.839Z,6.85
2022-12-15T01:56:09.598Z,6.90
2022-12-15T01:58:37.749Z,7.03
2022-12-15T02:01:04.691Z,6.70
2022-12-15T02:03:32.439Z,6.32
2022-12-15T02:06:01.590Z,6.90
2022-12-15T02:08:29.166Z,6.35
2022-12-15T02:11:14.457Z,6.97
2022-12-15T02:14:02.572Z,6.22
2022-12-15T02:17:05.660Z,6.43
2022-12-15T02:20:05.843Z,6.63
2022-12-15T02:22:38.292Z,6.63
2022-12-15T02:25:28.942Z,6.57
2022-12-15T02:28:04.887Z,6.63
2022-12-15T02:31:08.333Z,6.68
2022-12-15T02:33:40.373Z,6.60
2022-12-15T02:36:24.366Z,7.07
2022-12-15T02:38:50.943Z,6.43
2022-12-15T02:41:42.036Z,6.80
2022-12-15T02:44:30.729Z,6.30
2022-12-15T02:47:05.844Z,6.20
2022-12-15T02:49:39.693Z,6.43
2022-12-15T02:52:34.057Z,6.80
2022-12-15T02:55:20.153Z,6.45
2022-12-15T02:58:11.556Z,6.53
2022-12-15T03:00:44.418Z,6.90
2022-12-15T03:03:13.726Z,6.97
2022-12-15T03:05:40.937Z,7.38
2022-12-15T03:08:09.217Z,7.20
2022-12-15T03:10:35.796Z,6.88
2022-12-15T03:13:02.358Z,6.80
2022-12-15T03:15:33.551Z,7.72
2022-12-15T03:18:01.961Z,6.90
2022-12-15T03:20:28.570Z,6.90
2022-12-15T03:22:55.158Z,6.47
2022-12-15T03:25:21.787Z,6.43
2022-12-15T03:27:48.345Z,6.95
2022-12-15T03:30:15.219Z,7.05
2022-12-15T03:32:41.916Z,6.50
2022-12-15T03:35:08.971Z,6.55
2022-12-15T03:37:35.525Z,6.32
2022-12-15T03:40:02.072Z,6.75
2022-12-15T03:42:47.344Z,6.60
2022-12-15T03:45:21.386Z,6.38
2022-12-15T03:47:48.246Z,6.50
2022-12-15T03:50:16.961Z,6.82
2022-12-15T03:52:44.604Z,6.35
2022-12-15T03:55:12.171Z,6.50
2022-12-15T03:57:38.731Z,6.45
2022-12-15T04:00:07.072Z,6.82
2022-12-15T04:02:33.870Z,5.95
2022-12-15T04:05:00.579Z,6.60
2022-12-15T04:07:27.479Z,7.20
2022-12-15T04:09:54.005Z,6.43
2022-12-15T04:12:20.593Z,6.78
2022-12-15T04:14:47.141Z,7.25
2022-12-15T04:17:16.403Z,6.80
2022-12-15T04:20:01.626Z,6.85
2022-12-15T04:22:28.378Z,7.13
2022-12-15T04:25:13.671Z,6.88
2022-12-15T04:28:01.646Z,6.78
2022-12-15T04:30:49.063Z,6.72
2022-12-15T04:33:35.171Z,6.25
2022-12-15T04:36:20.946Z,6.65
2022-12-15T04:39:06.369Z,6.85
2022-12-15T04:41:51.607Z,6.65
2022-12-15T04:44:37.263Z,6.40
2022-12-15T04:47:22.536Z,6.85
2022-12-15T04:50:07.980Z,6.80
2022-12-15T04:52:53.343Z,6.75
2022-12-15T04:55:38.750Z,7.07
2022-12-15T04:58:26.203Z,6.70
2022-12-15T05:01:11.482Z,6.93
2022-12-15T05:03:59.693Z,6.85
2022-12-15T05:06:44.818Z,6.78
2022-12-15T05:09:30.108Z,6.72
2022-12-15T05:12:15.561Z,7.05
2022-12-15T05:15:00.884Z,6.65
2022-12-15T05:17:46.453Z,6.65
2022-12-15T05:20:31.623Z,6.53
2022-12-15T05:23:17.370Z,6.70
2022-12-15T05:26:03.328Z,6.38
2022-12-15T05:28:48.607Z,6.55
2022-12-15T05:31:34.178Z,6.50
2022-12-15T05:34:05.234Z,6.43
2022-12-15T05:36:33.014Z,6.70
2022-12-15T05:38:59.590Z,6.47
2022-12-15T05:41:26.174Z,6.32
2022-12-15T05:43:52.820Z,6.85
2022-12-15T05:46:19.848Z,6.68
2022-12-15T05:48:46.931Z,7.38
2022-12-15T05:51:14.362Z,6.40
2022-12-15T05:53:41.974Z,6.63
2022-12-15T05:56:13.745Z,6.93
2022-12-15T05:58:45.138Z,6.93
2022-12-15T06:01:15.865Z,6.68
2022-12-15T06:03:43.246Z,6.40
2022-12-15T06:06:12.106Z,7.20
2022-12-15T06:08:40.630Z,6.43
2022-12-15T06:11:07.651Z,6.47
2022-12-15T06:13:35.014Z,6.50
2022-12-15T06:16:04.334Z,6.15
2022-12-15T06:18:34.310Z,6.55
2022-12-15T06:21:09.175Z,5.90
2022-12-15T06:23:36.502Z,6.28
2022-12-15T06:26:21.137Z,6.22
2022-12-15T06:28:49.000Z,6.10
2022-12-15T06:31:17.772Z,5.75
2022-12-15T06:33:44.381Z,6.30
2022-12-15T06:36:13.671Z,6.43
2022-12-15T06:38:43.491Z,6.70
2022-12-15T06:41:12.830Z,6.53
2022-12-15T06:43:39.637Z,6.35
2022-12-15T06:46:07.008Z,6.03
2022-12-15T06:48:33.566Z,6.50
2022-12-15T06:51:13.347Z,6.70
2022-12-15T06:53:51.180Z,6.57
2022-12-15T06:56:32.551Z,6.65
2022-12-15T06:59:00.352Z,6.60
2022-12-15T07:01:27.687Z,6.38
2022-12-15T07:03:54.955Z,6.80
2022-12-15T07:06:21.906Z,6.57
2022-12-15T07:08:53.897Z,6.88
2022-12-15T07:11:22.146Z,6.35
2022-12-15T07:13:52.901Z,6.30
2022-12-15T07:16:21.482Z,6.50
2022-12-15T07:18:48.166Z,6.20
2022-12-15T07:21:14.764Z,8.30
2022-12-15T07:23:58.053Z,6.05
2022-12-15T07:26:25.897Z,6.15
2022-12-15T07:28:53.755Z,6.50
2022-12-15T07:31:21.063Z,6.40
2022-12-15T07:33:48.478Z,5.80
2022-12-15T07:36:15.702Z,6.07
2022-12-15T07:38:42.599Z,5.90
2022-12-15T07:41:10.304Z,5.78
2022-12-15T07:43:38.193Z,6.47
2022-12-15T07:46:05.721Z,6.20
2022-12-15T07:48:33.003Z,6.43
2022-12-15T07:51:09.575Z,6.38
2022-12-15T07:53:39.921Z,6.15
2022-12-15T07:56:09.440Z,5.90
2022-12-15T07:58:37.811Z,6.13
2022-12-15T08:01:10.646Z,6.13
2022-12-15T08:03:38.728Z,6.72
2022-12-15T08:06:14.404Z,6.32
2022-12-15T08:08:41.516Z,6.72
2022-12-15T08:11:10.860Z,6.07
2022-12-15T08:16:25.832Z,5.97
2022-12-15T08:18:52.493Z,6.35
2022-12-15T08:21:19.316Z,6.40
2022-12-15T08:23:46.212Z,6.13
2022-12-15T08:26:16.052Z,5.93
2022-12-15T08:28:43.726Z,6.03
2022-12-15T08:31:16.770Z,6.40
2022-12-15T08:33:44.912Z,6.75
2022-12-15T08:36:13.816Z,6.13
2022-12-15T08:38:41.898Z,6.63
2022-12-15T08:41:12.652Z,6.05
2022-12-15T08:43:45.749Z,6.43
2022-12-15T08:46:16.255Z,6.07
2022-12-15T08:48:43.166Z,6.13
2022-12-15T08:51:10.303Z,7.18
2022-12-15T08:53:37.054Z,6.93
2022-12-15T08:56:12.513Z,5.97
2022-12-15T08:58:39.601Z,6.00
2022-12-15T09:01:09.080Z,6.55
2022-12-15T09:03:36.699Z,6.80
2022-12-15T09:06:05.399Z,6.50
2022-12-15T09:08:33.304Z,7.07
2022-12-15T09:11:00.983Z,6.65
2022-12-15T09:13:27.823Z,6.40
2022-12-15T09:16:14.504Z,6.55
2022-12-15T09:18:46.718Z,6.68
2022-12-15T09:21:14.479Z,6.75
2022-12-15T09:23:42.062Z,6.57
2022-12-15T09:26:14.583Z,6.85
2022-12-15T09:28:44.982Z,5.78
2022-12-15T09:31:21.765Z,6.40
2022-12-15T09:33:49.933Z,6.82
2022-12-15T09:36:16.567Z,6.22
2022-12-15T09:38:43.726Z,6.07
2022-12-15T09:41:13.303Z,6.03
2022-12-15T09:43:51.210Z,6.80
2022-12-15T09:46:34.324Z,6.00
2022-12-15T09:49:11.414Z,6.60
2022-12-15T09:51:47.925Z,5.95
2022-12-15T09:54:14.600Z,6.15
2022-12-15T09:56:49.862Z,6.45
2022-12-15T09:59:49.236Z,6.70
2022-12-15T10:02:39.726Z,6.32
2022-12-15T10:06:07.449Z,5.72
2022-12-15T10:08:28.372Z,6.05
2022-12-15T10:11:01.695Z,6.28
2022-12-15T10:13:52.290Z,5.68
2022-12-15T10:16:24.921Z,6.20
2022-12-15T10:19:14.776Z,6.10
2022-12-15T10:21:42.532Z,5.90
2022-12-15T10:24:37.560Z,5.40
2022-12-15T10:27:32.647Z,5.75
2022-12-15T10:30:09.531Z,5.60
2022-12-15T10:33:11.387Z,5.47
2022-12-15T10:35:39.853Z,5.30
2022-12-15T10:38:17.163Z,5.32
2022-12-15T10:40:52.005Z,5.22
2022-12-15T10:43:28.818Z,5.50
2022-12-15T10:46:09.365Z,5.60
2022-12-15T10:48:37.269Z,4.90
2022-12-15T10:51:37.074Z,5.72
2022-12-15T10:54:12.961Z,5.65
2022-12-15T10:57:23.399Z,5.25
2022-12-15T10:59:50.509Z,5.60
2022-12-15T11:02:34.542Z,5.40
2022-12-15T11:05:15.497Z,5.18
2022-12-15T11:07:53.435Z,6.00
2022-12-15T11:10:19.946Z,5.07
2022-12-15T11:13:13.271Z,5.22
2022-12-15T11:15:56.441Z,5.05
2022-12-15T11:19:04.664Z,5.10
2022-12-15T11:21:38.715Z,5.22
2022-12-15T11:24:21.531Z,5.13
2022-12-15T11:27:12.940Z,5.53
2022-12-15T11:30:03.805Z,5.30
2022-12-15T11:32:35.295Z,4.85
2022-12-15T11:35:02.417Z,5.00
2022-12-15T11:37:40.180Z,5.40
2022-12-15T11:40:40.785Z,5.32
2022-12-15T11:43:45.986Z,4.72
2022-12-15T11:46:24.187Z,4.57
2022-12-15T11:49:12.399Z,5.10
2022-12-15T11:52:14.141Z,4.47
2022-12-15T11:54:53.374Z,4.70
2022-12-15T11:57:43.519Z,4.93
2022-12-15T12:00:20.023Z,4.50
2022-12-15T12:03:00.230Z,4.90
2022-12-15T12:05:41.645Z,5.28
2022-12-15T12:08:18.874Z,5.20
2022-12-15T12:11:02.356Z,4.90
2022-12-15T12:13:53.915Z,4.63
2022-12-15T12:16:39.934Z,5.00
2022-12-15T12:19:19.493Z,4.90
2022-12-15T12:24:43.767Z,4.80
2022-12-15T12:27:34.720Z,4.75
2022-12-15T12:30:24.022Z,4.57
2022-12-15T12:33:19.750Z,5.05
2022-12-15T12:35:50.619Z,4.63
2022-12-15T12:38:24.784Z,4.57
2022-12-15T12:41:20.546Z,4.75
2022-12-15T12:43:58.875Z,4.70
2022-12-15T12:46:39.322Z,4.43
2022-12-15T12:52:14.972Z,4.60
2022-12-15T12:54:50.208Z,4.18
2022-12-15T12:57:31.782Z,4.43
2022-12-15T13:00:02.664Z,4.50
2022-12-15T13:02:35.262Z,4.80
2022-12-15T13:05:22.183Z,4.70
2022-12-15T13:08:06.700Z,4.75
2022-12-15T13:10:36.299Z,4.50
2022-12-15T13:13:27.690Z,4.63
2022-12-15T13:16:24.265Z,4.30
2022-12-15T13:19:05.129Z,4.68
2022-12-15T13:21:44.302Z,4.22
2022-12-15T13:24:35.818Z,4.32
2022-12-15T13:27:16.566Z,4.32
2022-12-15T13:30:09.059Z,4.00
2022-12-15T13:32:41.969Z,4.22
2022-12-15T13:35:14.494Z,4.10
2022-12-15T13:37:49.064Z,4.25
2022-12-15T13:40:35.716Z,3.80
2022-12-15T13:43:05.404Z,4.03
2022-12-15T13:45:37.932Z,4.22
2022-12-15T13:48:32.966Z,3.95
2022-12-15T13:51:24.048Z,4.60
2022-12-15T13:54:09.905Z,4.35
2022-12-15T13:56:45.225Z,3.72
2022-12-15T13:59:37.401Z,3.58
2022-12-15T14:02:22.215Z,4.15
2022-12-15T14:05:17.660Z,4.05
2022-12-15T14:07:52.662Z,4.22
2022-12-15T14:10:28.655Z,4.22
2022-12-15T14:13:01.515Z,3.63
2022-12-15T14:15:32.034Z,4.15
2022-12-15T14:18:01.422Z,4.20
2022-12-15T14:20:40.651Z,4.15
2022-12-15T14:23:22.893Z,4.00
2022-12-15T14:25:56.760Z,3.97
2022-12-15T14:28:30.263Z,3.75
2022-12-15T14:31:00.238Z,4.20
2022-12-15T14:33:29.762Z,3.80
2022-12-15T14:36:00.019Z,3.85
2022-12-15T14:38:33.076Z,4.10
2022-12-15T14:41:03.289Z,4.32
2022-12-15T14:43:37.568Z,4.00
2022-12-15T14:46:11.257Z,3.65
2022-12-15T14:48:42.961Z,4.05
2022-12-15T14:51:12.834Z,3.60
2022-12-15T14:53:42.126Z,3.90
2022-12-15T14:56:29.742Z,3.70
2022-12-15T14:58:59.822Z,3.72
2022-12-15T15:01:29.966Z,3.50
2022-12-15T15:03:05.150Z,4.65
2022-12-15T15:03:11.973Z,4.80
2022-12-15T15:03:58.870Z,3.63
2022-12-15T15:06:40.220Z,3.60
2022-12-15T15:09:32.409Z,3.90
2022-12-15T15:12:05.503Z,3.78
2022-12-15T15:14:44.593Z,3.63
2022-12-15T15:17:14.604Z,3.78
2022-12-15T15:19:55.266Z,3.92
2022-12-15T15:22:37.750Z,3.85
2022-12-15T15:25:39.909Z,3.38
2022-12-15T15:28:18.167Z,3.72
2022-12-15T15:30:48.355Z,3.53
2022-12-15T15:33:16.879Z,4.10
2022-12-15T15:35:44.866Z,3.92
2022-12-15T15:38:29.324Z,3.75
2022-12-15T15:41:14.730Z,4.15
2022-12-15T15:43:41.776Z,3.75
2022-12-15T15:46:35.954Z,4.15
2022-12-15T15:49:06.064Z,3.67
2022-12-15T15:51:33.635Z,3.53
2022-12-15T15:54:04.466Z,3.80
2022-12-15T15:56:31.509Z,3.67
2022-12-15T15:59:02.758Z,4.07
2022-12-15T16:01:29.413Z,3.60
2022-12-15T16:03:56.170Z,3.78
2022-12-15T16:06:24.215Z,4.00
2022-12-15T16:08:52.547Z,3.90
2022-12-15T16:11:20.290Z,3.90
2022-12-15T16:13:46.937Z,3.95
2022-12-15T16:16:19.801Z,3.70
2022-12-15T16:18:46.486Z,3.80
2022-12-15T16:21:14.534Z,3.40
2022-12-15T16:23:44.134Z,3.72
2022-12-15T16:26:16.284Z,3.88
2022-12-15T16:28:43.170Z,3.50
2022-12-15T16:31:29.108Z,3.92
2022-12-15T16:33:55.942Z,4.20
2022-12-15T16:36:22.626Z,4.25
2022-12-15T16:38:50.116Z,3.72
2022-12-15T16:41:18.717Z,3.80
2022-12-15T16:43:48.117Z,3.75
2022-12-15T16:46:15.731Z,3.80
2022-12-15T16:48:43.379Z,3.88
2022-12-15T16:51:31.757Z,3.63
2022-12-15T16:53:58.338Z,3.90
2022-12-15T16:56:24.895Z,3.40
2022-12-15T16:58:57.570Z,3.85
2022-12-15T17:01:29.580Z,3.83
2022-12-15T17:03:57.142Z,4.03
2022-12-15T17:06:23.795Z,4.32
2022-12-15T17:08:54.403Z,3.63
2022-12-15T17:11:27.276Z,3.90
2022-12-15T17:13:57.266Z,3.45
2022-12-15T17:16:25.735Z,4.32
2022-12-15T17:18:53.036Z,3.75
2022-12-15T17:21:21.106Z,3.90
2022-12-15T17:23:52.361Z,3.90
2022-12-15T17:26:29.885Z,4.28
2022-12-15T17:29:01.151Z,3.78
2022-12-15T17:31:34.829Z,4.00
2022-12-15T17:34:30.090Z,3.53
2022-12-15T17:37:02.347Z,3.63
2022-12-15T17:39:30.313Z,3.60
2022-12-15T17:42:00.568Z,4.03
2022-12-15T17:44:36.862Z,3.53
2022-12-15T17:47:07.381Z,3.90
2022-12-15T17:49:37.269Z,3.67
2022-12-15T17:52:26.394Z,3.50
2022-12-15T17:54:53.966Z,3.50
2022-12-15T17:57:20.896Z,3.65
2022-12-15T17:59:48.181Z,3.55
2022-12-15T18:02:15.241Z,3.53
2022-12-15T18:04:42.221Z,3.78
2022-12-15T18:07:21.147Z,3.95
2022-12-15T18:09:49.692Z,3.53
2022-12-15T18:12:20.368Z,3.67
2022-12-15T18:14:47.818Z,3.72
2022-12-15T18:17:14.847Z,3.85
2022-12-15T18:19:41.425Z,3.60
2022-12-15T18:22:21.000Z,3.65
2022-12-15T18:24:48.952Z,3.55
2022-12-15T18:27:27.234Z,4.10
2022-12-15T18:29:54.370Z,3.72
2022-12-15T18:32:24.504Z,3.63
2022-12-15T18:34:51.401Z,3.42
2022-12-15T18:37:20.688Z,3.70
2022-12-15T18:39:47.873Z,3.67
2022-12-15T18:42:16.793Z,3.90
2022-12-15T18:44:48.862Z,3.67
2022-12-15T18:47:17.515Z,3.60
2022-12-15T18:49:44.210Z,3.80
2022-12-15T18:52:19.983Z,3.78
2022-12-15T18:54:52.499Z,3.65
2022-12-15T18:57:37.801Z,3.53
2022-12-15T19:00:18.058Z,4.00
2022-12-15T19:02:44.815Z,3.88
2022-12-15T19:05:27.507Z,3.63
2022-12-15T19:08:00.305Z,3.47
2022-12-15T19:10:33.595Z,3.60
2022-12-15T19:13:00.432Z,3.80
2022-12-15T19:15:27.253Z,3.80
2022-12-15T19:18:12.678Z,3.90
2022-12-15T19:20:58.414Z,3.90
2022-12-15T19:23:25.162Z,3.45
2022-12-15T19:25:53.126Z,4.18
2022-12-15T19:28:23.343Z,3.67
2022-12-15T19:30:51.992Z,4.00
2022-12-15T19:33:19.280Z,3.83
2022-12-15T19:35:51.134Z,3.70
2022-12-15T19:38:31.907Z,4.10
2022-12-15T19:40:59.984Z,3.80
2022-12-15T19:43:26.902Z,3.47
2022-12-15T19:45:53.789Z,4.10
2022-12-15T19:48:23.806Z,4.10
2022-12-15T19:50:52.065Z,3.58
2022-12-15T19:53:28.277Z,3.60
2022-12-15T19:55:59.737Z,3.70
2022-12-15T19:58:44.767Z,3.53
2022-12-15T20:01:17.775Z,3.95
2022-12-15T20:03:49.397Z,3.72
2022-12-15T20:06:20.492Z,4.05
2022-12-15T20:08:50.331Z,3.58
2022-12-15T20:11:24.659Z,3.17
2022-12-15T20:13:52.222Z,3.60
2022-12-15T20:16:19.502Z,3.47
2022-12-15T20:18:54.727Z,3.65
2022-12-15T20:21:23.914Z,3.75
2022-12-15T20:23:54.705Z,3.50
2022-12-15T20:26:22.388Z,4.07
2022-12-15T20:28:49.279Z,3.50
2022-12-15T20:31:19.233Z,3.75
2022-12-15T20:33:46.707Z,3.95
2022-12-15T20:36:19.351Z,3.63
2022-12-15T20:38:46.567Z,3.78
2022-12-15T20:41:31.086Z,3.25
2022-12-15T20:43:59.046Z,4.28
2022-12-15T20:46:32.643Z,3.65
2022-12-15T20:48:59.655Z,3.53
2022-12-15T20:51:32.145Z,3.83
2022-12-15T20:54:02.257Z,3.50
2022-12-15T20:56:29.406Z,3.50
2022-12-15T20:58:57.230Z,3.55
2022-12-15T21:01:26.978Z,3.88
2022-12-15T21:03:56.830Z,4.00
2022-12-15T21:06:25.192Z,3.60
2022-12-15T21:08:52.507Z,3.45
2022-12-15T21:11:25.314Z,3.75
2022-12-15T21:13:53.850Z,3.60
2022-12-15T21:16:26.842Z,3.58
2022-12-15T21:21:44.289Z,3.58
2022-12-15T21:24:23.516Z,4.10
2022-12-15T21:26:50.944Z,3.60
2022-12-15T21:29:23.450Z,3.45
2022-12-15T21:31:50.881Z,3.80
2022-12-15T21:34:17.451Z,3.83
2022-12-15T21:36:47.466Z,3.85
2022-12-15T21:39:23.546Z,3.55
2022-12-15T21:41:50.414Z,3.50
2022-12-15T21:44:18.382Z,3.70
2022-12-15T21:46:45.474Z,3.15
2022-12-15T21:49:20.618Z,3.30
2022-12-15T21:51:52.483Z,3.50
2022-12-15T21:54:30.451Z,3.50
2022-12-15T21:56:58.967Z,3.10
2022-12-15T21:59:29.863Z,3.53
2022-12-15T22:01:56.868Z,3.38
2022-12-15T22:04:31.935Z,3.33
2022-12-15T22:06:58.686Z,3.05
2022-12-15T22:09:25.425Z,3.00
2022-12-15T22:11:54.233Z,3.30
2022-12-15T22:14:28.583Z,3.42
2022-12-15T22:16:55.813Z,3.20
2022-12-15T22:19:23.359Z,3.20
2022-12-15T22:21:50.440Z,3.33
2022-12-15T22:24:17.063Z,2.67
2022-12-15T22:26:44.315Z,3.00
2022-12-15T22:29:21.556Z,3.13
2022-12-15T22:31:50.540Z,2.83
2022-12-15T22:34:21.944Z,2.90
2022-12-15T22:36:49.568Z,3.53
2022-12-15T22:39:18.849Z,3.10
2022-12-15T22:41:48.908Z,2.80
2022-12-15T22:44:19.828Z,3.10
2022-12-15T22:46:48.420Z,2.53
2022-12-15T22:49:20.463Z,2.85
2022-12-15T22:51:47.570Z,2.80
2022-12-15T22:54:26.985Z,3.10
2022-12-15T22:57:04.284Z,2.67
2022-12-15T22:59:41.321Z,3.00
2022-12-15T23:02:09.081Z,3.10
2022-12-15T23:04:36.649Z,2.80
2022-12-15T23:07:07.504Z,2.80
2022-12-15T23:09:34.136Z,3.05
2022-12-15T23:12:00.861Z,2.80
2022-12-15T23:15:03.119Z,2.80
2022-12-15T23:17:29.674Z,2.67
2022-12-15T23:19:56.204Z,2.53
2022-12-15T23:22:22.817Z,2.70
2022-12-15T23:24:49.534Z,3.00
2022-12-15T23:27:16.099Z,3.25
2022-12-15T23:29:42.652Z,2.65
2022-12-15T23:32:09.222Z,2.70
2022-12-15T23:34:35.770Z,3.15
2022-12-15T23:37:02.713Z,3.05
2022-12-15T23:39:29.475Z,3.03
2022-12-15T23:41:56.147Z,3.00
2022-12-15T23:44:22.986Z,3.08
2022-12-15T23:46:49.659Z,2.90
2022-12-15T23:49:16.413Z,3.10
2022-12-15T23:51:43.136Z,2.65
2022-12-15T23:54:10.115Z,2.72
2022-12-15T23:56:39.164Z,2.97
2022-12-15T23:59:05.785Z,2.92
